createdAt,value
2018-12-22T00:02:21.828Z,26.33
2018-12-22T00:04:49.783Z,23.53
2018-12-22T00:07:34.653Z,21.27
2018-12-22T00:10:02.636Z,27.17
2018-12-22T00:12:47.512Z,27.80
2018-12-22T00:15:15.451Z,24.07
2018-12-22T00:17:43.456Z,26.83
2018-12-22T00:20:11.435Z,24.60
2018-12-22T00:22:39.400Z,25.50
2018-12-22T00:25:07.508Z,22.87
2018-12-22T00:27:35.514Z,25.23
2018-12-22T00:30:04.489Z,24.87
2018-12-22T00:32:32.444Z,26.87
2018-12-22T00:35:00.415Z,30.43
2018-12-22T00:37:28.395Z,25.83
2018-12-22T00:39:56.434Z,26.83
2018-12-22T00:42:24.433Z,20.53
2018-12-22T00:44:52.379Z,27.50
2018-12-22T00:47:20.344Z,27.00
2018-12-22T00:49:48.450Z,27.80
2018-12-22T00:52:16.413Z,31.20
2018-12-22T00:54:44.407Z,26.13
2018-12-22T00:57:12.430Z,27.27
2018-12-22T00:59:40.375Z,23.67
2018-12-22T01:02:08.349Z,22.93
2018-12-22T01:04:36.312Z,27.33
2018-12-22T01:07:04.331Z,29.33
2018-12-22T01:09:32.304Z,29.87
2018-12-22T01:12:00.279Z,28.00
2018-12-22T01:14:28.245Z,31.80
2018-12-22T01:16:56.211Z,36.03
2018-12-22T01:19:24.194Z,26.37
2018-12-22T01:21:52.225Z,29.20
2018-12-22T01:24:20.204Z,32.63
2018-12-22T01:26:48.200Z,27.97
2018-12-22T01:29:33.069Z,28.13
2018-12-22T01:32:01.045Z,32.23
2018-12-22T01:34:29.008Z,25.20
2018-12-22T01:36:56.980Z,28.17
2018-12-22T01:39:24.981Z,31.37
2018-12-22T01:41:52.937Z,24.83
2018-12-22T01:44:20.916Z,25.67
2018-12-22T01:46:49.167Z,27.47
2018-12-22T01:49:17.216Z,33.87
2018-12-22T01:51:45.171Z,26.10
2018-12-22T01:54:13.203Z,30.17
2018-12-22T01:56:41.176Z,32.77
2018-12-22T01:59:09.113Z,28.40
2018-12-22T02:01:37.639Z,28.20
2018-12-22T02:04:05.615Z,24.97
2018-12-22T02:06:33.572Z,27.47
2018-12-22T02:09:01.569Z,30.87
2018-12-22T02:11:29.553Z,28.07
2018-12-22T02:13:57.537Z,31.77
2018-12-22T02:16:25.544Z,29.63
2018-12-22T02:18:53.568Z,25.60
2018-12-22T02:21:21.542Z,33.67
2018-12-22T02:23:49.519Z,30.83
2018-12-22T02:26:17.513Z,31.97
2018-12-22T02:28:45.493Z,33.40
2018-12-22T02:31:13.493Z,32.87
2018-12-22T02:33:41.472Z,29.07
2018-12-22T02:36:09.428Z,32.80
2018-12-22T02:38:37.454Z,29.63
2018-12-22T02:41:05.420Z,31.60
2018-12-22T02:43:33.836Z,27.40
2018-12-22T02:46:01.840Z,29.63
2018-12-22T02:48:31.156Z,29.87
2018-12-22T02:50:59.205Z,31.47
2018-12-22T02:53:27.209Z,33.97
2018-12-22T02:55:55.173Z,37.80
2018-12-22T02:58:23.201Z,30.73
2018-12-22T03:00:51.187Z,33.27
2018-12-22T03:03:19.156Z,26.57
2018-12-22T03:05:47.181Z,34.27
2018-12-22T03:08:15.186Z,30.47
2018-12-22T03:10:43.134Z,26.77
2018-12-22T03:13:11.099Z,29.87
2018-12-22T03:15:39.972Z,27.60
2018-12-22T03:18:08.413Z,29.73
2018-12-22T03:20:36.389Z,32.23
2018-12-22T03:23:04.398Z,35.97
2018-12-22T03:25:32.344Z,29.43
2018-12-22T03:28:00.308Z,27.90
2018-12-22T03:30:28.639Z,31.63
2018-12-22T03:33:59.617Z,25.50
2018-12-22T03:36:32.605Z,36.07
2018-12-22T03:39:00.575Z,24.97
2018-12-22T03:41:28.553Z,28.87
2018-12-22T03:43:56.524Z,31.97
2018-12-22T03:46:24.462Z,29.33
2018-12-22T03:48:52.429Z,37.43
2018-12-22T03:51:20.488Z,30.87
2018-12-22T03:53:48.447Z,30.27
2018-12-22T03:56:16.393Z,30.60
2018-12-22T03:58:44.387Z,30.43
2018-12-22T04:01:12.830Z,32.77
2018-12-22T04:03:40.777Z,27.90
2018-12-22T04:06:08.779Z,30.53
2018-12-22T04:08:36.715Z,32.57
2018-12-22T04:11:04.677Z,26.17
2018-12-22T04:13:32.653Z,32.63
2018-12-22T04:16:00.603Z,30.40
2018-12-22T04:18:28.553Z,30.13
2018-12-22T04:20:56.536Z,28.70
2018-12-22T04:23:24.513Z,34.93
2018-12-22T04:25:53.834Z,30.90
2018-12-22T04:28:21.811Z,32.87
2018-12-22T04:30:49.768Z,34.23
2018-12-22T04:33:17.775Z,33.87
2018-12-22T04:35:45.778Z,34.27
2018-12-22T04:38:13.769Z,34.27
2018-12-22T04:40:41.792Z,38.57
2018-12-22T04:43:09.765Z,32.60
2018-12-22T04:45:37.722Z,29.33
2018-12-22T04:48:05.684Z,36.53
2018-12-22T04:50:33.904Z,39.63
2018-12-22T04:53:01.891Z,31.40
2018-12-22T04:55:29.836Z,34.33
2018-12-22T04:57:57.821Z,27.80
2018-12-22T05:00:26.519Z,33.80
2018-12-22T05:02:54.477Z,29.93
2018-12-22T05:05:22.652Z,35.00
2018-12-22T05:07:50.590Z,38.60
2018-12-22T05:10:18.556Z,30.67
2018-12-22T05:12:46.739Z,30.47
2018-12-22T05:15:18.772Z,31.43
2018-12-22T05:17:46.747Z,34.80
2018-12-22T05:20:15.537Z,34.67
2018-12-22T05:22:43.826Z,30.83
2018-12-22T05:25:11.822Z,32.50
2018-12-22T05:27:39.780Z,31.13
2018-12-22T05:30:08.429Z,28.03
2018-12-22T05:32:36.397Z,29.00
2018-12-22T05:35:04.818Z,33.10
2018-12-22T05:37:33.070Z,29.23
2018-12-22T05:40:01.038Z,37.00
2018-12-22T05:42:29.066Z,35.33
2018-12-22T05:44:57.036Z,29.07
2018-12-22T05:47:26.156Z,29.47
2018-12-22T05:49:54.087Z,29.83
2018-12-22T05:52:22.373Z,37.50
2018-12-22T05:54:50.348Z,30.13
2018-12-22T05:57:18.438Z,31.83
2018-12-22T05:59:46.391Z,28.13
2018-12-22T06:02:14.365Z,31.67
2018-12-22T06:04:42.315Z,32.87
2018-12-22T06:07:10.281Z,34.60
2018-12-22T06:09:38.310Z,31.40
2018-12-22T06:12:06.457Z,34.13
2018-12-22T06:14:34.553Z,28.63
2018-12-22T06:17:02.580Z,32.83
2018-12-22T06:19:40.808Z,32.33
2018-12-22T06:22:13.462Z,39.20
2018-12-22T06:24:42.388Z,35.97
2018-12-22T06:27:10.352Z,37.03
2018-12-22T06:29:38.323Z,39.47
2018-12-22T06:32:06.302Z,27.23
2018-12-22T06:34:34.284Z,35.03
2018-12-22T06:37:02.278Z,36.40
2018-12-22T06:39:30.232Z,36.23
2018-12-22T06:41:58.241Z,43.73
2018-12-22T06:44:26.212Z,41.90
2018-12-22T06:46:54.169Z,34.23
2018-12-22T06:49:22.137Z,37.77
2018-12-22T06:51:50.129Z,36.30
2018-12-22T06:54:18.102Z,31.13
2018-12-22T06:56:46.069Z,41.13
2018-12-22T06:59:14.045Z,40.33
2018-12-22T07:01:42.013Z,40.30
2018-12-22T07:04:09.963Z,34.33
2018-12-22T07:06:37.985Z,35.33
2018-12-22T07:10:36.038Z,32.30
2018-12-22T07:13:04.072Z,38.93
2018-12-22T07:15:32.081Z,40.03
2018-12-22T07:18:00.040Z,37.53
2018-12-22T07:20:28.181Z,42.07
2018-12-22T07:22:56.128Z,34.17
2018-12-22T07:25:24.110Z,42.43
2018-12-22T07:27:52.097Z,40.40
2018-12-22T07:30:26.172Z,36.40
2018-12-22T07:32:56.910Z,32.90
2018-12-22T07:35:20.247Z,35.20
2018-12-22T07:37:48.209Z,36.63
2018-12-22T07:40:16.161Z,36.90
2018-12-22T07:42:44.166Z,40.67
2018-12-22T07:45:12.252Z,38.67
2018-12-22T07:47:41.018Z,26.90
2018-12-22T07:50:09.657Z,25.87
2018-12-22T07:52:37.649Z,37.83
2018-12-22T07:55:05.666Z,36.00
2018-12-22T07:57:33.711Z,39.93
2018-12-22T08:00:01.853Z,40.97
2018-12-22T08:02:30.013Z,38.20
2018-12-22T08:04:58.900Z,38.77
2018-12-22T08:07:31.637Z,44.90
2018-12-22T08:10:06.711Z,35.33
2018-12-22T08:12:35.695Z,37.50
2018-12-22T08:15:04.949Z,41.30
2018-12-22T08:17:33.002Z,39.87
2018-12-22T08:20:01.275Z,36.10
2018-12-22T08:22:29.278Z,38.93
2018-12-22T08:24:57.245Z,35.33
2018-12-22T08:27:25.231Z,32.60
2018-12-22T08:29:59.128Z,29.90
2018-12-22T08:32:28.120Z,37.63
2018-12-22T08:34:56.065Z,41.83
2018-12-22T08:37:24.700Z,40.23
2018-12-22T08:39:52.690Z,38.67
2018-12-22T08:42:20.689Z,28.77
2018-12-22T08:44:48.834Z,33.23
2018-12-22T08:47:16.825Z,31.33
2018-12-22T08:49:45.350Z,30.57
2018-12-22T08:52:14.159Z,37.03
2018-12-22T08:54:42.126Z,39.07
2018-12-22T08:57:10.096Z,32.77
2018-12-22T08:59:38.201Z,36.23
2018-12-22T09:02:06.284Z,32.63
2018-12-22T09:04:34.299Z,32.10
2018-12-22T09:07:02.277Z,28.70
2018-12-22T09:09:31.048Z,31.27
2018-12-22T09:11:59.011Z,34.47
2018-12-22T09:14:27.060Z,34.83
2018-12-22T09:16:55.664Z,34.33
2018-12-22T09:19:24.380Z,38.00
2018-12-22T09:21:53.264Z,28.70
2018-12-22T09:24:22.137Z,28.27
2018-12-22T09:26:50.584Z,35.40
2018-12-22T09:29:19.326Z,31.73
2018-12-22T09:31:48.208Z,38.93
2018-12-22T09:34:17.069Z,30.73
2018-12-22T09:36:47.935Z,32.87
2018-12-22T09:39:20.208Z,35.67
2018-12-22T09:41:49.018Z,29.57
2018-12-22T09:44:16.986Z,35.40
2018-12-22T09:46:45.063Z,28.03
2018-12-22T09:49:13.045Z,33.03
2018-12-22T09:51:41.017Z,30.93
2018-12-22T09:54:09.423Z,38.27
2018-12-22T09:56:37.444Z,38.73
2018-12-22T09:59:06.495Z,41.40
2018-12-22T10:01:34.805Z,39.27
2018-12-22T10:04:02.920Z,32.33
2018-12-22T10:06:30.879Z,46.13
2018-12-22T10:08:58.821Z,40.07
2018-12-22T10:11:26.931Z,28.60
2018-12-22T10:13:54.928Z,50.10
2018-12-22T10:16:22.925Z,38.43
2018-12-22T10:18:50.951Z,38.03
2018-12-22T10:21:18.937Z,39.13
2018-12-22T10:23:47.040Z,32.90
2018-12-22T10:26:15.132Z,30.03
2018-12-22T10:28:44.550Z,39.30
2018-12-22T10:31:17.957Z,31.17
2018-12-22T10:33:42.665Z,33.77
2018-12-22T10:36:10.702Z,34.47
2018-12-22T10:38:38.757Z,37.03
2018-12-22T10:41:06.846Z,37.77
2018-12-22T10:43:34.865Z,82.37
2018-12-22T10:46:02.885Z,54.70
2018-12-22T10:48:30.995Z,73.30
2018-12-22T10:50:59.027Z,53.83
2018-12-22T10:53:27.034Z,74.30
2018-12-22T10:55:55.202Z,44.53
2018-12-22T10:58:24.189Z,34.17
2018-12-22T11:00:52.212Z,45.57
2018-12-22T11:03:20.225Z,42.40
2018-12-22T11:05:48.234Z,51.30
2018-12-22T11:08:16.267Z,38.87
2018-12-22T11:10:44.360Z,32.37
2018-12-22T11:13:12.353Z,42.50
2018-12-22T11:15:40.381Z,51.93
2018-12-22T11:18:08.479Z,45.13
2018-12-22T11:20:36.491Z,37.97
2018-12-22T11:23:04.494Z,45.87
2018-12-22T11:25:32.554Z,40.20
2018-12-22T11:28:00.572Z,40.80
2018-12-22T11:30:36.015Z,39.93
2018-12-22T11:33:20.920Z,42.07
2018-12-22T11:35:48.951Z,42.50
2018-12-22T11:38:16.984Z,41.20
2018-12-22T11:40:45.024Z,34.83
2018-12-22T11:43:13.083Z,32.87
2018-12-22T11:45:41.185Z,33.67
2018-12-22T11:49:05.484Z,43.73
2018-12-22T11:53:03.111Z,42.17
2018-12-22T11:55:31.257Z,37.90
2018-12-22T11:57:59.235Z,36.47
2018-12-22T12:00:27.199Z,43.00
2018-12-22T12:02:55.211Z,42.60
2018-12-22T12:05:23.167Z,46.13
2018-12-22T12:07:51.128Z,39.53
2018-12-22T12:10:19.137Z,33.10
2018-12-22T12:12:48.452Z,34.13
2018-12-22T12:15:20.054Z,33.73
2018-12-22T12:20:01.951Z,35.00
2018-12-22T12:22:29.962Z,34.97
2018-12-22T12:24:57.993Z,36.13
2018-12-22T12:27:25.981Z,35.20
2018-12-22T12:29:54.102Z,31.30
2018-12-22T12:32:22.077Z,37.70
2018-12-22T12:34:50.117Z,38.57
2018-12-22T12:37:18.089Z,52.60
2018-12-22T12:39:46.034Z,36.87
2018-12-22T12:42:13.998Z,65.90
2018-12-22T12:44:43.012Z,35.63
2018-12-22T12:47:11.635Z,32.03
2018-12-22T12:49:39.596Z,37.40
2018-12-22T12:52:07.690Z,41.83
2018-12-22T12:54:35.714Z,39.37
2018-12-22T12:57:04.606Z,33.93
2018-12-22T12:59:33.711Z,33.43
2018-12-22T13:02:03.694Z,29.47
2018-12-22T13:04:31.678Z,36.27
2018-12-22T13:06:59.720Z,31.00
2018-12-22T13:09:27.792Z,39.43
2018-12-22T13:11:58.733Z,36.50
2018-12-22T13:14:26.735Z,37.50
2018-12-22T13:16:54.717Z,40.90
2018-12-22T13:19:22.681Z,44.20
2018-12-22T13:21:52.785Z,34.57
2018-12-22T13:24:20.759Z,37.13
2018-12-22T13:26:49.369Z,37.13
2018-12-22T13:29:17.388Z,31.67
2018-12-22T13:31:46.161Z,38.50
2018-12-22T13:34:14.130Z,33.77
2018-12-22T13:36:42.149Z,32.43
2018-12-22T13:39:15.578Z,29.77
2018-12-22T13:41:43.650Z,34.77
2018-12-22T13:44:11.657Z,29.67
2018-12-22T13:46:39.676Z,30.27
2018-12-22T13:49:07.871Z,22.70
2018-12-22T13:51:37.179Z,31.43
2018-12-22T13:54:05.198Z,27.60
2018-12-22T13:56:33.200Z,30.67
2018-12-22T13:59:01.333Z,28.50
2018-12-22T14:01:31.392Z,27.93
2018-12-22T14:03:59.400Z,31.13
2018-12-22T14:06:31.628Z,30.97
2018-12-22T14:08:59.617Z,32.43
2018-12-22T14:11:27.644Z,30.40
2018-12-22T14:13:57.564Z,28.70
2018-12-22T14:16:48.220Z,33.07
2018-12-22T14:19:16.456Z,33.80
2018-12-22T14:22:00.887Z,34.13
2018-12-22T14:24:38.252Z,29.43
2018-12-22T14:27:06.369Z,29.17
2018-12-22T14:29:34.339Z,31.47
2018-12-22T14:35:25.532Z,31.80
2018-12-22T14:37:53.693Z,29.17
2018-12-22T14:40:21.769Z,29.50
2018-12-22T14:42:49.811Z,27.13
2018-12-22T14:45:17.788Z,33.67
2018-12-22T14:47:45.750Z,27.57
2018-12-22T14:50:13.751Z,33.63
2018-12-22T14:52:41.736Z,34.57
2018-12-22T14:55:10.041Z,28.80
2018-12-22T14:57:48.078Z,27.83
2018-12-22T15:00:16.105Z,31.03
2018-12-22T15:02:45.427Z,30.50
2018-12-22T15:05:13.459Z,28.53
2018-12-22T15:07:41.506Z,25.50
2018-12-22T15:10:09.699Z,31.23
2018-12-22T15:12:37.785Z,31.63
2018-12-22T15:15:07.453Z,30.20
2018-12-22T15:17:35.465Z,29.97
2018-12-22T15:20:05.421Z,37.00
2018-12-22T15:22:33.413Z,23.20
2018-12-22T15:25:02.055Z,28.17
2018-12-22T15:27:30.574Z,25.27
2018-12-22T15:29:59.289Z,25.50
2018-12-22T15:32:27.925Z,26.03
2018-12-22T15:34:56.650Z,21.57
2018-12-22T15:37:24.762Z,31.93
2018-12-22T15:39:52.802Z,29.10
2018-12-22T15:42:20.921Z,27.37
2018-12-22T15:44:48.913Z,32.97
2018-12-22T15:47:17.001Z,31.23
2018-12-22T15:49:45.033Z,36.00
2018-12-22T15:52:13.016Z,34.37
2018-12-22T15:54:41.004Z,33.10
2018-12-22T15:57:09.040Z,27.90
2018-12-22T15:59:37.037Z,24.47
2018-12-22T16:02:05.064Z,32.80
2018-12-22T16:04:33.049Z,23.97
2018-12-22T16:07:01.030Z,23.47
2018-12-22T16:09:29.216Z,26.97
2018-12-22T16:11:57.302Z,22.77
2018-12-22T16:14:25.361Z,22.87
2018-12-22T16:16:53.413Z,23.40
2018-12-22T16:19:21.465Z,24.77
2018-12-22T16:21:49.448Z,20.83
2018-12-22T16:24:17.470Z,23.30
2018-12-22T16:26:45.517Z,22.53
2018-12-22T16:29:23.562Z,20.17
2018-12-22T16:31:51.584Z,25.50
2018-12-22T16:34:19.577Z,26.87
2018-12-22T16:36:47.582Z,25.23
2018-12-22T16:39:15.672Z,30.73
2018-12-22T16:41:43.696Z,21.83
2018-12-22T16:44:15.381Z,21.83
2018-12-22T16:46:43.913Z,23.07
2018-12-22T16:49:11.927Z,21.27
2018-12-22T16:51:39.920Z,25.13
2018-12-22T16:54:07.988Z,23.57
2018-12-22T16:56:35.964Z,23.53
2018-12-22T16:59:04.448Z,29.50
2018-12-22T17:01:40.469Z,22.80
2018-12-22T17:04:08.541Z,24.73
2018-12-22T17:06:38.426Z,38.37
2018-12-22T17:09:07.763Z,41.83
2018-12-22T17:11:35.929Z,42.43
2018-12-22T17:14:04.090Z,39.53
2018-12-22T17:16:32.481Z,32.43
2018-12-22T17:19:00.520Z,31.30
2018-12-22T17:21:50.010Z,34.37
2018-12-22T17:24:24.084Z,31.07
2018-12-22T17:26:52.177Z,32.50
2018-12-22T17:29:20.159Z,38.20
2018-12-22T17:31:48.161Z,33.97
2018-12-22T17:34:16.307Z,37.53
2018-12-22T17:36:44.765Z,35.57
2018-12-22T17:39:14.088Z,39.20
2018-12-22T17:41:46.653Z,41.67
2018-12-22T17:44:14.680Z,40.23
2018-12-22T17:46:42.737Z,38.87
2018-12-22T17:49:10.942Z,33.27
2018-12-22T17:51:39.190Z,36.43
2018-12-22T17:54:07.336Z,32.80
2018-12-22T17:56:35.440Z,35.37
2018-12-22T17:59:03.916Z,34.97
2018-12-22T18:01:32.185Z,40.67
2018-12-22T18:04:04.098Z,33.47
2018-12-22T18:06:32.668Z,36.07
2018-12-22T18:09:00.697Z,37.03
2018-12-22T18:11:29.265Z,38.77
2018-12-22T18:13:57.284Z,38.03
2018-12-22T18:16:25.308Z,50.33
2018-12-22T18:18:53.957Z,40.97
2018-12-22T18:21:22.050Z,38.43
2018-12-22T18:23:50.095Z,41.30
2018-12-22T18:26:18.304Z,51.47
2018-12-22T18:28:47.066Z,44.40
2018-12-22T18:31:15.136Z,38.13
2018-12-22T18:33:43.272Z,39.57
2018-12-22T18:36:12.184Z,40.83
2018-12-22T18:38:40.233Z,41.27
2018-12-22T18:41:09.322Z,45.93
2018-12-22T18:43:41.121Z,36.93
2018-12-22T18:46:09.189Z,43.83
2018-12-22T18:48:37.669Z,42.47
2018-12-22T18:51:05.694Z,40.83
2018-12-22T18:53:34.216Z,40.20
2018-12-22T18:56:03.364Z,42.77
2018-12-22T18:58:32.707Z,36.20
2018-12-22T19:01:08.852Z,38.20
2018-12-22T19:03:44.681Z,56.00
2018-12-22T19:06:13.121Z,68.63
2018-12-22T19:08:41.881Z,55.30
2018-12-22T19:11:13.409Z,46.17
2018-12-22T19:13:41.563Z,50.50
2018-12-22T19:16:09.661Z,72.33
2018-12-22T19:18:37.852Z,64.17
2018-12-22T19:21:05.973Z,65.60
2018-12-22T19:23:34.979Z,52.80
2018-12-22T19:26:03.288Z,58.03
2018-12-22T19:28:31.318Z,49.73
2018-12-22T19:30:59.357Z,44.93
2018-12-22T19:33:27.439Z,46.03
2018-12-22T19:35:55.479Z,40.67
2018-12-22T19:38:23.501Z,41.10
2018-12-22T19:40:54.159Z,32.33
2018-12-22T19:43:22.229Z,41.43
2018-12-22T19:45:50.490Z,30.77
2018-12-22T19:48:18.538Z,35.27
2018-12-22T19:50:46.627Z,36.10
2018-12-22T19:53:14.691Z,30.70
2018-12-22T19:55:42.799Z,37.67
2018-12-22T19:58:10.890Z,38.63
2018-12-22T20:00:38.940Z,33.57
2018-12-22T20:03:07.000Z,36.57
2018-12-22T20:05:35.051Z,33.23
2018-12-22T20:08:03.094Z,34.50
2018-12-22T20:10:31.250Z,34.50
2018-12-22T20:12:59.261Z,34.30
2018-12-22T20:15:27.312Z,26.40
2018-12-22T20:17:55.358Z,32.27
2018-12-22T20:20:23.378Z,34.97
2018-12-22T20:22:51.407Z,37.90
2018-12-22T20:25:19.482Z,36.67
2018-12-22T20:27:47.598Z,35.13
2018-12-22T20:30:15.639Z,43.03
2018-12-22T20:32:43.780Z,35.73
2018-12-22T20:35:12.026Z,35.67
2018-12-22T20:37:40.088Z,34.00
2018-12-22T20:40:08.581Z,34.63
2018-12-22T20:42:36.655Z,32.40
2018-12-22T20:45:05.169Z,34.07
2018-12-22T20:47:33.328Z,44.23
2018-12-22T20:50:01.324Z,58.90
2018-12-22T20:52:30.305Z,62.50
2018-12-22T20:54:58.311Z,61.57
2018-12-22T20:57:26.317Z,62.37
2018-12-22T20:59:54.422Z,62.30
2018-12-22T21:02:23.171Z,77.90
2018-12-22T21:04:52.691Z,77.63
2018-12-22T21:07:20.704Z,78.87
2018-12-22T21:09:48.732Z,89.00
2018-12-22T21:12:16.704Z,81.60
2018-12-22T21:14:44.753Z,86.67
2018-12-22T21:17:12.799Z,94.63
2018-12-22T21:19:40.847Z,91.03
2018-12-22T21:22:08.848Z,98.00
2018-12-22T21:24:36.871Z,79.93
2018-12-22T21:27:04.880Z,68.90
2018-12-22T21:29:32.867Z,78.60
2018-12-22T21:32:01.797Z,83.73
2018-12-22T21:34:29.849Z,86.30
2018-12-22T21:36:57.816Z,104.17
2018-12-22T21:39:25.845Z,104.27
2018-12-22T21:41:53.883Z,80.97
2018-12-22T21:44:21.905Z,90.17
2018-12-22T21:46:50.306Z,112.80
2018-12-22T21:49:19.142Z,90.17
2018-12-22T21:51:47.167Z,62.10
2018-12-22T21:54:15.228Z,59.23
2018-12-22T21:56:43.246Z,70.33
2018-12-22T21:59:11.256Z,55.90
2018-12-22T22:01:39.407Z,72.03
2018-12-22T22:04:07.605Z,73.20
2018-12-22T22:06:35.617Z,65.80
2018-12-22T22:09:05.094Z,42.27
2018-12-22T22:11:33.132Z,42.77
2018-12-22T22:14:01.166Z,61.77
2018-12-22T22:16:29.232Z,67.33
2018-12-22T22:18:57.246Z,59.10
2018-12-22T22:21:25.216Z,67.93
2018-12-22T22:23:53.232Z,61.07
2018-12-22T22:26:21.212Z,72.30
2018-12-22T22:28:49.221Z,76.63
2018-12-22T22:31:17.235Z,69.90
2018-12-22T22:33:45.224Z,76.13
2018-12-22T22:36:13.640Z,65.40
2018-12-22T22:38:41.672Z,75.97
2018-12-22T22:41:09.670Z,68.90
2018-12-22T22:43:37.654Z,69.43
2018-12-22T22:46:05.671Z,88.93
2018-12-22T22:48:33.618Z,74.73
2018-12-22T22:51:07.036Z,53.73
2018-12-22T22:53:35.006Z,80.87
2018-12-22T22:56:02.960Z,71.60
2018-12-22T22:58:30.944Z,77.40
2018-12-22T23:00:59.175Z,82.97
2018-12-22T23:03:27.186Z,61.90
2018-12-22T23:05:55.170Z,71.50
2018-12-22T23:08:23.205Z,68.00
2018-12-22T23:10:51.180Z,85.13
2018-12-22T23:13:19.208Z,61.13
2018-12-22T23:15:47.190Z,63.03
2018-12-22T23:18:15.618Z,47.13
2018-12-22T23:20:43.773Z,53.90
2018-12-22T23:23:11.775Z,93.70
2018-12-22T23:25:39.796Z,92.37
2018-12-22T23:28:07.819Z,72.83
2018-12-22T23:30:35.958Z,55.70
2018-12-22T23:33:03.969Z,54.53
2018-12-22T23:35:32.020Z,53.17
2018-12-22T23:38:00.233Z,70.90
2018-12-22T23:40:28.253Z,61.80
2018-12-22T23:42:56.257Z,58.57
2018-12-22T23:45:24.250Z,58.10
2018-12-22T23:47:52.230Z,60.83
2018-12-22T23:50:20.261Z,65.77
2018-12-22T23:52:48.257Z,47.53
2018-12-22T23:55:16.224Z,36.80
2018-12-22T23:57:44.219Z,51.63
